createdAt,value
2022-12-04T00:08:53.378Z,5.30
2022-12-04T00:18:56.568Z,5.30
2022-12-04T00:28:59.706Z,5.30
2022-12-04T00:39:02.883Z,5.30
2022-12-04T00:49:06.031Z,5.30
2022-12-04T00:59:09.230Z,5.30
2022-12-04T01:09:12.400Z,5.30
2022-12-04T01:19:15.605Z,5.30
2022-12-04T01:29:18.744Z,5.30
2022-12-04T01:39:21.951Z,5.30
2022-12-04T02:10:20.969Z,5.30
2022-12-04T02:20:24.105Z,5.30
2022-12-04T02:30:27.345Z,5.30
2022-12-04T02:40:30.529Z,5.30
2022-12-04T02:50:33.719Z,5.30
2022-12-04T03:00:36.868Z,5.30
2022-12-04T03:10:40.063Z,5.19
2022-12-04T03:20:43.428Z,5.30
2022-12-04T03:30:46.761Z,5.30
2022-12-04T03:40:49.929Z,5.30
2022-12-04T03:50:53.231Z,5.30
2022-12-04T04:00:56.359Z,5.30
2022-12-04T04:10:59.557Z,5.19
2022-12-04T04:21:02.700Z,5.19
2022-12-04T04:31:05.936Z,5.19
2022-12-04T04:41:09.088Z,5.19
2022-12-04T04:51:12.294Z,5.19
2022-12-04T05:01:15.469Z,5.19
2022-12-04T05:11:18.669Z,5.19
2022-12-04T05:21:21.807Z,5.19
2022-12-04T05:31:25.148Z,5.19
2022-12-04T05:41:28.323Z,5.19
2022-12-04T05:51:31.511Z,5.19
2022-12-04T06:01:34.703Z,5.19
2022-12-04T06:11:37.932Z,5.19
2022-12-04T06:21:41.084Z,5.19
2022-12-04T06:31:44.498Z,5.19
2022-12-04T06:41:47.837Z,5.19
2022-12-04T06:51:51.046Z,5.10
2022-12-04T07:01:54.228Z,5.10
2022-12-04T07:11:57.406Z,5.10
2022-12-04T07:22:00.530Z,5.10
2022-12-04T07:32:03.831Z,5.10
2022-12-04T07:42:07.069Z,5.10
2022-12-04T07:52:10.254Z,5.19
2022-12-04T08:02:13.433Z,5.19
2022-12-04T08:12:16.616Z,5.10
2022-12-04T08:22:24.866Z,5.00
2022-12-04T08:32:23.720Z,5.00
2022-12-04T08:42:26.851Z,5.00
2022-12-04T08:52:30.038Z,5.00
2022-12-04T09:02:33.183Z,5.00
2022-12-04T09:12:36.369Z,5.10
2022-12-04T09:23:02.387Z,5.10
2022-12-04T09:32:43.478Z,5.10
2022-12-04T09:42:46.620Z,5.00
2022-12-04T09:52:49.813Z,5.00
2022-12-04T10:02:53.033Z,4.90
2022-12-04T10:12:56.314Z,4.99
2022-12-04T10:22:59.464Z,4.99
2022-12-04T10:33:02.647Z,5.00
2022-12-04T10:43:05.802Z,5.00
2022-12-04T10:53:13.644Z,5.10
2022-12-04T11:03:11.931Z,5.10
2022-12-04T11:13:15.125Z,5.00
2022-12-04T11:23:18.251Z,4.90
2022-12-04T11:33:21.456Z,4.90
2022-12-04T11:43:24.595Z,4.90
2022-12-04T11:53:27.835Z,4.90
2022-12-04T12:03:31.123Z,4.99
2022-12-04T12:13:34.405Z,5.00
2022-12-04T12:23:37.539Z,5.00
2022-12-04T12:33:40.729Z,5.00
2022-12-04T12:43:44.017Z,5.00
2022-12-04T12:53:47.256Z,4.90
2022-12-04T13:03:50.405Z,4.90
2022-12-04T13:13:53.605Z,4.90
2022-12-04T13:23:56.727Z,4.90
2022-12-04T13:33:59.917Z,4.90
2022-12-04T13:44:07.191Z,5.00
2022-12-04T13:54:08.013Z,5.00
2022-12-04T14:04:11.300Z,5.00
2022-12-04T14:14:14.491Z,5.00
2022-12-04T14:24:17.644Z,4.90
2022-12-04T14:34:20.894Z,4.90
2022-12-04T14:44:24.152Z,4.90
2022-12-04T14:54:27.334Z,4.90
2022-12-04T15:04:30.506Z,4.90
2022-12-04T15:14:33.735Z,5.00
2022-12-04T15:24:36.895Z,5.00
2022-12-04T15:34:40.087Z,5.00
2022-12-04T15:44:43.227Z,5.00
2022-12-04T15:54:46.419Z,4.90
2022-12-04T16:04:49.566Z,4.90
2022-12-04T16:14:52.775Z,5.00
2022-12-04T16:24:56.390Z,5.00
2022-12-04T16:34:59.781Z,5.10
2022-12-04T16:45:02.930Z,5.20
2022-12-04T16:55:06.411Z,5.00
2022-12-04T17:05:09.627Z,4.80
2022-12-04T17:15:12.816Z,4.80
2022-12-04T17:25:15.952Z,4.69
2022-12-04T17:35:19.151Z,4.39
2022-12-04T17:45:22.288Z,4.69
2022-12-04T17:55:25.479Z,4.80
2022-12-04T18:05:28.680Z,4.90
2022-12-04T18:15:31.860Z,4.90
2022-12-04T18:25:34.996Z,4.90
2022-12-04T18:35:38.184Z,4.90
2022-12-04T18:45:41.349Z,4.90
2022-12-04T18:55:44.506Z,4.90
2022-12-04T19:05:47.761Z,4.90
2022-12-04T19:15:50.935Z,4.90
2022-12-04T19:25:54.204Z,5.00
2022-12-04T19:35:57.373Z,4.90
2022-12-04T19:46:00.674Z,4.90
2022-12-04T19:56:03.895Z,4.90
2022-12-04T20:06:07.075Z,4.90
2022-12-04T20:16:10.379Z,4.90
2022-12-04T20:26:13.561Z,4.90
2022-12-04T20:36:16.743Z,4.90
2022-12-04T20:46:19.989Z,4.90
2022-12-04T20:56:23.354Z,4.90
2022-12-04T21:17:18.385Z,4.90
2022-12-04T21:27:21.724Z,4.80
2022-12-04T21:48:22.651Z,4.80
2022-12-04T21:58:20.668Z,4.80
2022-12-04T22:08:23.898Z,4.90
2022-12-04T22:18:27.074Z,4.80
2022-12-04T22:28:30.261Z,4.80
2022-12-04T22:38:36.455Z,4.80
2022-12-04T22:48:37.352Z,4.80
2022-12-04T22:58:40.537Z,4.80
2022-12-04T23:08:43.679Z,4.80
2022-12-04T23:18:46.875Z,4.80
2022-12-04T23:28:50.005Z,4.80
2022-12-04T23:38:53.196Z,4.80
2022-12-04T23:48:56.328Z,4.80
2022-12-04T23:58:59.523Z,4.80
